sensor_id;sensor_type;location;lat;lon;timestamp;P1;durP1;ratioP1;P2;durP2;ratioP2
9536;SDS011;4807;48.024;11.726;2024-01-06T00:02:33;4.60;;;3.93;;
9536;SDS011;4807;48.024;11.726;2024-01-06T00:05:42;4.07;;;3.67;;
9536;SDS011;4807;48.024;11.726;2024-01-06T00:08:51;4.33;;;3.93;;
9536;SDS011;4807;48.024;11.726;2024-01-06T00:12:01;5.27;;;4.10;;
9536;SDS011;4807;48.024;11.726;2024-01-06T00:15:11;5.50;;;3.77;;
9536;SDS011;4807;48.024;11.726;2024-01-06T00:18:21;5.27;;;4.03;;
9536;SDS011;4807;48.024;11.726;2024-01-06T00:21:30;5.33;;;4.13;;
9536;SDS011;4807;48.024;11.726;2024-01-06T00:24:38;5.00;;;4.50;;
9536;SDS011;4807;48.024;11.726;2024-01-06T00:27:47;4.23;;;3.83;;
9536;SDS011;4807;48.024;11.726;2024-01-06T00:30:56;3.50;;;3.20;;
9536;SDS011;4807;48.024;11.726;2024-01-06T00:34:06;3.50;;;3.20;;
9536;SDS011;4807;48.024;11.726;2024-01-06T00:37:15;4.07;;;3.77;;
9536;SDS011;4807;48.024;11.726;2024-01-06T00:40:23;4.53;;;3.73;;
9536;SDS011;4807;48.024;11.726;2024-01-06T00:43:32;4.47;;;3.17;;
9536;SDS011;4807;48.024;11.726;2024-01-06T00:46:40;4.10;;;3.50;;
9536;SDS011;4807;48.024;11.726;2024-01-06T00:49:50;3.80;;;3.33;;
9536;SDS011;4807;48.024;11.726;2024-01-06T00:52:58;4.57;;;3.73;;
9536;SDS011;4807;48.024;11.726;2024-01-06T00:56:07;3.87;;;3.47;;
9536;SDS011;4807;48.024;11.726;2024-01-06T00:59:15;4.33;;;3.73;;
9536;SDS011;4807;48.024;11.726;2024-01-06T01:02:23;4.10;;;3.70;;
9536;SDS011;4807;48.024;11.726;2024-01-06T01:05:34;4.50;;;4.03;;
9536;SDS011;4807;48.024;11.726;2024-01-06T01:08:42;3.97;;;3.17;;
9536;SDS011;4807;48.024;11.726;2024-01-06T01:11:51;2.80;;;2.50;;
9536;SDS011;4807;48.024;11.726;2024-01-06T01:14:59;2.77;;;2.43;;
9536;SDS011;4807;48.024;11.726;2024-01-06T01:18:07;2.67;;;2.23;;
9536;SDS011;4807;48.024;11.726;2024-01-06T01:21:17;3.37;;;2.30;;
9536;SDS011;4807;48.024;11.726;2024-01-06T01:24:25;2.83;;;2.50;;
9536;SDS011;4807;48.024;11.726;2024-01-06T01:27:34;1.90;;;1.70;;
9536;SDS011;4807;48.024;11.726;2024-01-06T01:30:42;1.67;;;1.57;;
9536;SDS011;4807;48.024;11.726;2024-01-06T01:33:51;2.87;;;2.00;;
9536;SDS011;4807;48.024;11.726;2024-01-06T01:37:01;2.30;;;2.07;;
9536;SDS011;4807;48.024;11.726;2024-01-06T01:40:09;1.57;;;1.43;;
9536;SDS011;4807;48.024;11.726;2024-01-06T01:43:18;0.80;;;0.80;;
9536;SDS011;4807;48.024;11.726;2024-01-06T01:46:28;0.87;;;0.87;;
9536;SDS011;4807;48.024;11.726;2024-01-06T01:49:39;1.60;;;1.30;;
9536;SDS011;4807;48.024;11.726;2024-01-06T01:52:49;1.23;;;1.10;;
9536;SDS011;4807;48.024;11.726;2024-01-06T01:55:59;1.00;;;1.00;;
9536;SDS011;4807;48.024;11.726;2024-01-06T01:59:09;1.40;;;1.10;;
9536;SDS011;4807;48.024;11.726;2024-01-06T02:02:19;1.67;;;1.10;;
9536;SDS011;4807;48.024;11.726;2024-01-06T02:05:29;1.13;;;0.93;;
9536;SDS011;4807;48.024;11.726;2024-01-06T02:08:39;1.13;;;0.90;;
9536;SDS011;4807;48.024;11.726;2024-01-06T02:11:47;1.93;;;1.13;;
9536;SDS011;4807;48.024;11.726;2024-01-06T02:14:56;1.30;;;0.97;;
9536;SDS011;4807;48.024;11.726;2024-01-06T02:18:05;1.30;;;1.20;;
9536;SDS011;4807;48.024;11.726;2024-01-06T02:21:14;0.90;;;0.77;;
9536;SDS011;4807;48.024;11.726;2024-01-06T02:24:24;0.60;;;0.60;;
9536;SDS011;4807;48.024;11.726;2024-01-06T02:27:35;0.90;;;0.70;;
9536;SDS011;4807;48.024;11.726;2024-01-06T02:32:20;0.80;;;0.70;;
9536;SDS011;4807;48.024;11.726;2024-01-06T02:36:41;0.97;;;0.77;;
9536;SDS011;4807;48.024;11.726;2024-01-06T02:40:44;2.00;;;0.60;;
9536;SDS011;4807;48.024;11.726;2024-01-06T02:45:08;1.53;;;0.70;;
9536;SDS011;4807;48.024;11.726;2024-01-06T02:48:57;0.40;;;0.40;;
9536;SDS011;4807;48.024;11.726;2024-01-06T02:52:26;0.40;;;0.40;;
9536;SDS011;4807;48.024;11.726;2024-01-06T02:56:13;1.03;;;0.30;;
9536;SDS011;4807;48.024;11.726;2024-01-06T02:59:21;0.40;;;0.40;;
9536;SDS011;4807;48.024;11.726;2024-01-06T03:02:29;0.90;;;0.60;;
9536;SDS011;4807;48.024;11.726;2024-01-06T03:05:39;0.50;;;0.50;;
9536;SDS011;4807;48.024;11.726;2024-01-06T03:08:47;0.90;;;0.60;;
9536;SDS011;4807;48.024;11.726;2024-01-06T03:11:57;1.03;;;0.90;;
9536;SDS011;4807;48.024;11.726;2024-01-06T03:15:05;0.40;;;0.40;;
9536;SDS011;4807;48.024;11.726;2024-01-06T03:18:14;0.60;;;0.50;;
9536;SDS011;4807;48.024;11.726;2024-01-06T03:21:23;0.67;;;0.43;;
9536;SDS011;4807;48.024;11.726;2024-01-06T03:24:33;0.40;;;0.30;;
9536;SDS011;4807;48.024;11.726;2024-01-06T03:27:42;0.30;;;0.30;;
9536;SDS011;4807;48.024;11.726;2024-01-06T03:30:51;0.20;;;0.20;;
9536;SDS011;4807;48.024;11.726;2024-01-06T03:33:59;0.20;;;0.13;;
9536;SDS011;4807;48.024;11.726;2024-01-06T03:37:08;0.23;;;0.17;;
9536;SDS011;4807;48.024;11.726;2024-01-06T03:40:16;0.20;;;0.20;;
9536;SDS011;4807;48.024;11.726;2024-01-06T03:43:26;0.13;;;0.10;;
9536;SDS011;4807;48.024;11.726;2024-01-06T03:46:34;1.03;;;0.30;;
9536;SDS011;4807;48.024;11.726;2024-01-06T03:49:43;0.50;;;0.50;;
9536;SDS011;4807;48.024;11.726;2024-01-06T03:52:51;0.40;;;0.40;;
9536;SDS011;4807;48.024;11.726;2024-01-06T03:55:59;0.40;;;0.40;;
9536;SDS011;4807;48.024;11.726;2024-01-06T03:59:09;0.60;;;0.30;;
9536;SDS011;4807;48.024;11.726;2024-01-06T04:02:18;0.30;;;0.30;;
9536;SDS011;4807;48.024;11.726;2024-01-06T04:05:26;0.30;;;0.30;;
9536;SDS011;4807;48.024;11.726;2024-01-06T04:08:35;0.73;;;0.40;;
9536;SDS011;4807;48.024;11.726;2024-01-06T04:11:43;0.23;;;0.23;;
9536;SDS011;4807;48.024;11.726;2024-01-06T04:14:53;0.20;;;0.20;;
9536;SDS011;4807;48.024;11.726;2024-01-06T04:18:01;0.30;;;0.20;;
9536;SDS011;4807;48.024;11.726;2024-01-06T04:21:11;0.20;;;0.20;;
9536;SDS011;4807;48.024;11.726;2024-01-06T04:24:19;0.30;;;0.10;;
9536;SDS011;4807;48.024;11.726;2024-01-06T04:27:28;0.10;;;0.10;;
9536;SDS011;4807;48.024;11.726;2024-01-06T04:30:38;0.20;;;0.20;;
9536;SDS011;4807;48.024;11.726;2024-01-06T04:33:47;0.30;;;0.20;;
9536;SDS011;4807;48.024;11.726;2024-01-06T04:36:55;0.20;;;0.20;;
9536;SDS011;4807;48.024;11.726;2024-01-06T04:40:04;0.20;;;0.13;;
9536;SDS011;4807;48.024;11.726;2024-01-06T04:43:14;0.20;;;0.20;;
9536;SDS011;4807;48.024;11.726;2024-01-06T04:46:24;0.20;;;0.20;;
9536;SDS011;4807;48.024;11.726;2024-01-06T04:49:32;0.20;;;0.20;;
9536;SDS011;4807;48.024;11.726;2024-01-06T04:52:40;0.40;;;0.30;;
9536;SDS011;4807;48.024;11.726;2024-01-06T04:55:48;0.20;;;0.20;;
9536;SDS011;4807;48.024;11.726;2024-01-06T04:58:57;0.20;;;0.20;;
9536;SDS011;4807;48.024;11.726;2024-01-06T05:02:07;0.20;;;0.20;;
9536;SDS011;4807;48.024;11.726;2024-01-06T05:05:15;0.10;;;0.10;;
9536;SDS011;4807;48.024;11.726;2024-01-06T05:08:24;1.43;;;0.13;;
9536;SDS011;4807;48.024;11.726;2024-01-06T05:11:33;0.20;;;0.20;;
9536;SDS011;4807;48.024;11.726;2024-01-06T05:14:41;0.40;;;0.40;;
9536;SDS011;4807;48.024;11.726;2024-01-06T05:17:51;0.20;;;0.20;;
9536;SDS011;4807;48.024;11.726;2024-01-06T05:20:59;0.30;;;0.30;;
9536;SDS011;4807;48.024;11.726;2024-01-06T05:24:08;0.30;;;0.30;;
9536;SDS011;4807;48.024;11.726;2024-01-06T05:27:16;0.30;;;0.27;;
9536;SDS011;4807;48.024;11.726;2024-01-06T05:30:24;0.27;;;0.23;;
9536;SDS011;4807;48.024;11.726;2024-01-06T05:33:34;0.10;;;0.10;;
9536;SDS011;4807;48.024;11.726;2024-01-06T05:36:42;0.10;;;0.10;;
9536;SDS011;4807;48.024;11.726;2024-01-06T05:39:51;0.10;;;0.10;;
9536;SDS011;4807;48.024;11.726;2024-01-06T05:43:01;0.37;;;0.20;;
9536;SDS011;4807;48.024;11.726;2024-01-06T05:46:09;0.20;;;0.20;;
9536;SDS011;4807;48.024;11.726;2024-01-06T05:49:19;0.10;;;0.10;;
9536;SDS011;4807;48.024;11.726;2024-01-06T05:52:27;0.20;;;0.10;;
9536;SDS011;4807;48.024;11.726;2024-01-06T05:55:35;0.50;;;0.10;;
9536;SDS011;4807;48.024;11.726;2024-01-06T05:58:44;0.20;;;0.20;;
9536;SDS011;4807;48.024;11.726;2024-01-06T06:01:52;0.10;;;0.10;;
9536;SDS011;4807;48.024;11.726;2024-01-06T06:05:02;0.17;;;0.10;;
9536;SDS011;4807;48.024;11.726;2024-01-06T06:08:11;0.20;;;0.10;;
9536;SDS011;4807;48.024;11.726;2024-01-06T06:11:20;0.10;;;0.10;;
9536;SDS011;4807;48.024;11.726;2024-01-06T06:14:29;0.10;;;0.10;;
9536;SDS011;4807;48.024;11.726;2024-01-06T06:17:37;0.10;;;0.10;;
9536;SDS011;4807;48.024;11.726;2024-01-06T06:20:47;0.20;;;0.10;;
9536;SDS011;4807;48.024;11.726;2024-01-06T06:23:56;0.50;;;0.20;;
9536;SDS011;4807;48.024;11.726;2024-01-06T06:27:04;0.63;;;0.30;;
9536;SDS011;4807;48.024;11.726;2024-01-06T06:30:12;0.20;;;0.20;;
9536;SDS011;4807;48.024;11.726;2024-01-06T06:33:21;0.10;;;0.10;;
9536;SDS011;4807;48.024;11.726;2024-01-06T06:36:31;0.30;;;0.20;;
9536;SDS011;4807;48.024;11.726;2024-01-06T06:39:39;1.07;;;0.33;;
9536;SDS011;4807;48.024;11.726;2024-01-06T06:42:50;0.33;;;0.17;;
9536;SDS011;4807;48.024;11.726;2024-01-06T06:45:59;0.10;;;0.10;;
9536;SDS011;4807;48.024;11.726;2024-01-06T06:49:07;0.23;;;0.20;;
9536;SDS011;4807;48.024;11.726;2024-01-06T06:52:17;0.53;;;0.20;;
9536;SDS011;4807;48.024;11.726;2024-01-06T06:55:25;0.97;;;0.37;;
9536;SDS011;4807;48.024;11.726;2024-01-06T06:58:34;0.30;;;0.30;;
9536;SDS011;4807;48.024;11.726;2024-01-06T07:01:42;0.30;;;0.30;;
9536;SDS011;4807;48.024;11.726;2024-01-06T07:04:51;0.73;;;0.60;;
9536;SDS011;4807;48.024;11.726;2024-01-06T07:08:01;0.40;;;0.40;;
9536;SDS011;4807;48.024;11.726;2024-01-06T07:11:09;0.40;;;0.40;;
9536;SDS011;4807;48.024;11.726;2024-01-06T07:14:21;0.53;;;0.53;;
9536;SDS011;4807;48.024;11.726;2024-01-06T07:17:29;0.60;;;0.60;;
9536;SDS011;4807;48.024;11.726;2024-01-06T07:20:37;0.60;;;0.60;;
9536;SDS011;4807;48.024;11.726;2024-01-06T07:23:47;0.60;;;0.50;;
9536;SDS011;4807;48.024;11.726;2024-01-06T07:26:55;0.40;;;0.40;;
9536;SDS011;4807;48.024;11.726;2024-01-06T07:30:04;0.40;;;0.40;;
9536;SDS011;4807;48.024;11.726;2024-01-06T07:33:15;1.80;;;0.57;;
9536;SDS011;4807;48.024;11.726;2024-01-06T07:36:23;0.73;;;0.73;;
9536;SDS011;4807;48.024;11.726;2024-01-06T07:39:33;1.30;;;1.20;;
9536;SDS011;4807;48.024;11.726;2024-01-06T07:42:41;0.80;;;0.60;;
9536;SDS011;4807;48.024;11.726;2024-01-06T07:45:50;0.67;;;0.67;;
9536;SDS011;4807;48.024;11.726;2024-01-06T07:48:59;1.10;;;1.00;;
9536;SDS011;4807;48.024;11.726;2024-01-06T07:52:11;0.70;;;0.70;;
9536;SDS011;4807;48.024;11.726;2024-01-06T07:55:22;0.83;;;0.70;;
9536;SDS011;4807;48.024;11.726;2024-01-06T07:58:31;1.50;;;0.80;;
9536;SDS011;4807;48.024;11.726;2024-01-06T08:01:39;0.63;;;0.63;;
9536;SDS011;4807;48.024;11.726;2024-01-06T08:04:49;2.80;;;1.43;;
9536;SDS011;4807;48.024;11.726;2024-01-06T08:08:00;2.93;;;2.30;;
9536;SDS011;4807;48.024;11.726;2024-01-06T08:11:10;1.40;;;1.30;;
9536;SDS011;4807;48.024;11.726;2024-01-06T08:14:18;3.53;;;1.50;;
9536;SDS011;4807;48.024;11.726;2024-01-06T08:17:26;2.00;;;1.20;;
9536;SDS011;4807;48.024;11.726;2024-01-06T08:20:35;2.60;;;1.37;;
9536;SDS011;4807;48.024;11.726;2024-01-06T08:23:43;1.60;;;1.50;;
9536;SDS011;4807;48.024;11.726;2024-01-06T08:26:53;1.00;;;0.90;;
9536;SDS011;4807;48.024;11.726;2024-01-06T08:30:01;6.13;;;4.90;;
9536;SDS011;4807;48.024;11.726;2024-01-06T08:33:13;3.73;;;1.30;;
9536;SDS011;4807;48.024;11.726;2024-01-06T08:36:26;4.30;;;3.73;;
9536;SDS011;4807;48.024;11.726;2024-01-06T08:39:45;2.40;;;2.00;;
9536;SDS011;4807;48.024;11.726;2024-01-06T08:42:55;5.03;;;3.40;;
9536;SDS011;4807;48.024;11.726;2024-01-06T08:46:03;9.53;;;5.10;;
9536;SDS011;4807;48.024;11.726;2024-01-06T08:49:12;4.87;;;3.10;;
9536;SDS011;4807;48.024;11.726;2024-01-06T08:52:21;3.50;;;1.63;;
9536;SDS011;4807;48.024;11.726;2024-01-06T08:55:29;1.70;;;1.40;;
9536;SDS011;4807;48.024;11.726;2024-01-06T08:58:39;3.03;;;2.00;;
9536;SDS011;4807;48.024;11.726;2024-01-06T09:01:48;8.77;;;4.93;;
9536;SDS011;4807;48.024;11.726;2024-01-06T09:04:57;4.67;;;3.00;;
9536;SDS011;4807;48.024;11.726;2024-01-06T09:08:09;2.70;;;2.10;;
9536;SDS011;4807;48.024;11.726;2024-01-06T09:11:19;3.57;;;2.40;;
9536;SDS011;4807;48.024;11.726;2024-01-06T09:14:38;12.73;;;6.70;;
9536;SDS011;4807;48.024;11.726;2024-01-06T09:17:47;6.60;;;4.83;;
9536;SDS011;4807;48.024;11.726;2024-01-06T09:20:55;3.60;;;2.70;;
9536;SDS011;4807;48.024;11.726;2024-01-06T09:24:04;1.97;;;1.80;;
9536;SDS011;4807;48.024;11.726;2024-01-06T09:27:13;2.40;;;2.20;;
9536;SDS011;4807;48.024;11.726;2024-01-06T09:30:23;4.63;;;3.40;;
9536;SDS011;4807;48.024;11.726;2024-01-06T09:33:32;4.30;;;2.57;;
9536;SDS011;4807;48.024;11.726;2024-01-06T09:36:42;2.30;;;2.10;;
9536;SDS011;4807;48.024;11.726;2024-01-06T09:39:51;2.13;;;1.93;;
9536;SDS011;4807;48.024;11.726;2024-01-06T09:43:00;3.40;;;2.63;;
9536;SDS011;4807;48.024;11.726;2024-01-06T09:46:14;4.10;;;2.53;;
9536;SDS011;4807;48.024;11.726;2024-01-06T09:49:31;1.97;;;1.70;;
9536;SDS011;4807;48.024;11.726;2024-01-06T09:52:48;2.60;;;2.07;;
9536;SDS011;4807;48.024;11.726;2024-01-06T09:56:00;1.70;;;1.60;;
9536;SDS011;4807;48.024;11.726;2024-01-06T09:59:11;2.70;;;2.50;;
9536;SDS011;4807;48.024;11.726;2024-01-06T10:02:22;3.03;;;1.87;;
9536;SDS011;4807;48.024;11.726;2024-01-06T10:05:31;3.93;;;2.60;;
9536;SDS011;4807;48.024;11.726;2024-01-06T10:08:42;2.80;;;2.47;;
9536;SDS011;4807;48.024;11.726;2024-01-06T10:11:50;3.83;;;2.43;;
9536;SDS011;4807;48.024;11.726;2024-01-06T10:15:03;3.07;;;1.83;;
9536;SDS011;4807;48.024;11.726;2024-01-06T10:18:25;3.27;;;2.40;;
9536;SDS011;4807;48.024;11.726;2024-01-06T10:24:53;3.07;;;2.80;;
9536;SDS011;4807;48.024;11.726;2024-01-06T10:28:03;2.53;;;2.33;;
9536;SDS011;4807;48.024;11.726;2024-01-06T10:31:12;2.30;;;2.10;;
9536;SDS011;4807;48.024;11.726;2024-01-06T10:34:23;9.93;;;7.90;;
9536;SDS011;4807;48.024;11.726;2024-01-06T10:37:33;6.00;;;4.83;;
9536;SDS011;4807;48.024;11.726;2024-01-06T10:40:55;4.53;;;2.93;;
9536;SDS011;4807;48.024;11.726;2024-01-06T10:44:05;3.53;;;2.40;;
9536;SDS011;4807;48.024;11.726;2024-01-06T10:47:15;6.20;;;2.47;;
9536;SDS011;4807;48.024;11.726;2024-01-06T10:50:27;3.70;;;2.40;;
9536;SDS011;4807;48.024;11.726;2024-01-06T10:53:37;5.80;;;3.50;;
9536;SDS011;4807;48.024;11.726;2024-01-06T10:56:51;4.30;;;2.70;;
9536;SDS011;4807;48.024;11.726;2024-01-06T11:00:02;7.03;;;3.17;;
9536;SDS011;4807;48.024;11.726;2024-01-06T11:03:13;2.87;;;2.17;;
9536;SDS011;4807;48.024;11.726;2024-01-06T11:06:23;1.73;;;1.40;;
9536;SDS011;4807;48.024;11.726;2024-01-06T11:09:34;2.50;;;1.50;;
9536;SDS011;4807;48.024;11.726;2024-01-06T11:19:46;7.57;;;2.93;;
9536;SDS011;4807;48.024;11.726;2024-01-06T11:22:58;6.63;;;2.77;;
9536;SDS011;4807;48.024;11.726;2024-01-06T11:26:30;7.63;;;5.93;;
9536;SDS011;4807;48.024;11.726;2024-01-06T11:29:39;8.77;;;6.00;;
9536;SDS011;4807;48.024;11.726;2024-01-06T11:32:51;10.13;;;7.20;;
9536;SDS011;4807;48.024;11.726;2024-01-06T11:36:01;7.63;;;4.97;;
9536;SDS011;4807;48.024;11.726;2024-01-06T11:39:35;5.80;;;5.20;;
9536;SDS011;4807;48.024;11.726;2024-01-06T11:42:57;3.40;;;3.10;;
9536;SDS011;4807;48.024;11.726;2024-01-06T11:46:08;4.70;;;2.63;;
9536;SDS011;4807;48.024;11.726;2024-01-06T11:49:19;2.20;;;2.00;;
9536;SDS011;4807;48.024;11.726;2024-01-06T11:52:29;2.17;;;2.00;;
9536;SDS011;4807;48.024;11.726;2024-01-06T11:55:40;3.17;;;2.80;;
9536;SDS011;4807;48.024;11.726;2024-01-06T11:58:49;5.13;;;3.93;;
9536;SDS011;4807;48.024;11.726;2024-01-06T12:01:57;12.20;;;8.27;;
9536;SDS011;4807;48.024;11.726;2024-01-06T12:05:11;9.37;;;6.07;;
9536;SDS011;4807;48.024;11.726;2024-01-06T12:08:25;10.23;;;6.30;;
9536;SDS011;4807;48.024;11.726;2024-01-06T12:11:35;5.90;;;4.10;;
9536;SDS011;4807;48.024;11.726;2024-01-06T12:14:44;13.63;;;9.53;;
9536;SDS011;4807;48.024;11.726;2024-01-06T12:17:53;6.87;;;5.23;;
9536;SDS011;4807;48.024;11.726;2024-01-06T12:21:02;10.43;;;7.40;;
9536;SDS011;4807;48.024;11.726;2024-01-06T12:24:18;4.77;;;3.17;;
9536;SDS011;4807;48.024;11.726;2024-01-06T12:27:31;16.80;;;7.67;;
9536;SDS011;4807;48.024;11.726;2024-01-06T12:30:40;10.77;;;6.73;;
9536;SDS011;4807;48.024;11.726;2024-01-06T12:33:49;5.40;;;3.80;;
9536;SDS011;4807;48.024;11.726;2024-01-06T12:36:57;16.17;;;8.63;;
9536;SDS011;4807;48.024;11.726;2024-01-06T12:40:08;11.83;;;10.67;;
9536;SDS011;4807;48.024;11.726;2024-01-06T12:43:19;5.67;;;5.20;;
9536;SDS011;4807;48.024;11.726;2024-01-06T12:46:27;9.63;;;7.40;;
9536;SDS011;4807;48.024;11.726;2024-01-06T12:49:36;7.40;;;4.60;;
9536;SDS011;4807;48.024;11.726;2024-01-06T12:52:45;9.33;;;5.20;;
9536;SDS011;4807;48.024;11.726;2024-01-06T12:55:53;6.53;;;5.27;;
9536;SDS011;4807;48.024;11.726;2024-01-06T12:59:03;5.20;;;2.73;;
9536;SDS011;4807;48.024;11.726;2024-01-06T13:02:13;3.43;;;2.27;;
9536;SDS011;4807;48.024;11.726;2024-01-06T13:05:24;2.53;;;2.33;;
9536;SDS011;4807;48.024;11.726;2024-01-06T13:08:40;2.23;;;1.70;;
9536;SDS011;4807;48.024;11.726;2024-01-06T13:11:52;2.63;;;2.40;;
9536;SDS011;4807;48.024;11.726;2024-01-06T13:15:20;2.33;;;2.13;;
9536;SDS011;4807;48.024;11.726;2024-01-06T13:18:40;5.03;;;2.40;;
9536;SDS011;4807;48.024;11.726;2024-01-06T13:22:01;2.87;;;2.07;;
9536;SDS011;4807;48.024;11.726;2024-01-06T13:25:12;4.10;;;2.20;;
9536;SDS011;4807;48.024;11.726;2024-01-06T13:28:32;3.30;;;2.33;;
9536;SDS011;4807;48.024;11.726;2024-01-06T13:31:50;4.07;;;2.33;;
9536;SDS011;4807;48.024;11.726;2024-01-06T13:35:12;3.27;;;2.63;;
9536;SDS011;4807;48.024;11.726;2024-01-06T13:38:23;3.47;;;3.00;;
9536;SDS011;4807;48.024;11.726;2024-01-06T13:41:41;7.70;;;2.47;;
9536;SDS011;4807;48.024;11.726;2024-01-06T13:44:51;5.00;;;2.60;;
9536;SDS011;4807;48.024;11.726;2024-01-06T13:48:10;3.37;;;2.33;;
9536;SDS011;4807;48.024;11.726;2024-01-06T13:51:29;4.70;;;2.50;;
9536;SDS011;4807;48.024;11.726;2024-01-06T13:54:45;4.23;;;2.23;;
9536;SDS011;4807;48.024;11.726;2024-01-06T13:58:08;3.73;;;3.07;;
9536;SDS011;4807;48.024;11.726;2024-01-06T14:01:18;3.03;;;2.73;;
9536;SDS011;4807;48.024;11.726;2024-01-06T14:04:30;4.77;;;2.90;;
9536;SDS011;4807;48.024;11.726;2024-01-06T14:07:40;5.40;;;2.93;;
9536;SDS011;4807;48.024;11.726;2024-01-06T14:10:53;4.07;;;3.37;;
9536;SDS011;4807;48.024;11.726;2024-01-06T14:14:05;3.97;;;2.90;;
9536;SDS011;4807;48.024;11.726;2024-01-06T14:17:27;5.63;;;3.60;;
9536;SDS011;4807;48.024;11.726;2024-01-06T14:20:38;4.37;;;2.87;;
9536;SDS011;4807;48.024;11.726;2024-01-06T14:23:54;3.97;;;2.70;;
9536;SDS011;4807;48.024;11.726;2024-01-06T14:27:08;5.20;;;3.90;;
9536;SDS011;4807;48.024;11.726;2024-01-06T14:30:18;5.33;;;3.23;;
9536;SDS011;4807;48.024;11.726;2024-01-06T14:33:30;3.60;;;3.13;;
9536;SDS011;4807;48.024;11.726;2024-01-06T14:36:44;5.30;;;4.80;;
9536;SDS011;4807;48.024;11.726;2024-01-06T14:39:55;5.40;;;3.70;;
9536;SDS011;4807;48.024;11.726;2024-01-06T14:43:14;8.87;;;7.13;;
9536;SDS011;4807;48.024;11.726;2024-01-06T14:46:27;12.90;;;9.37;;
9536;SDS011;4807;48.024;11.726;2024-01-06T14:49:46;8.10;;;6.37;;
9536;SDS011;4807;48.024;11.726;2024-01-06T14:53:01;7.37;;;5.20;;
9536;SDS011;4807;48.024;11.726;2024-01-06T14:56:23;6.87;;;5.73;;
9536;SDS011;4807;48.024;11.726;2024-01-06T14:59:38;7.57;;;6.07;;
9536;SDS011;4807;48.024;11.726;2024-01-06T15:02:46;6.93;;;5.70;;
9536;SDS011;4807;48.024;11.726;2024-01-06T15:05:56;8.83;;;5.40;;
9536;SDS011;4807;48.024;11.726;2024-01-06T15:09:06;5.50;;;5.00;;
9536;SDS011;4807;48.024;11.726;2024-01-06T15:12:15;6.30;;;5.10;;
9536;SDS011;4807;48.024;11.726;2024-01-06T15:15:24;8.63;;;7.77;;
9536;SDS011;4807;48.024;11.726;2024-01-06T15:18:34;9.40;;;8.07;;
9536;SDS011;4807;48.024;11.726;2024-01-06T15:21:45;29.93;;;19.13;;
9536;SDS011;4807;48.024;11.726;2024-01-06T15:24:58;13.50;;;9.63;;
9536;SDS011;4807;48.024;11.726;2024-01-06T15:28:14;17.03;;;8.93;;
9536;SDS011;4807;48.024;11.726;2024-01-06T15:31:23;14.80;;;8.90;;
9536;SDS011;4807;48.024;11.726;2024-01-06T15:34:32;8.37;;;6.07;;
9536;SDS011;4807;48.024;11.726;2024-01-06T15:37:40;5.73;;;4.97;;
9536;SDS011;4807;48.024;11.726;2024-01-06T15:40:51;7.20;;;5.00;;
9536;SDS011;4807;48.024;11.726;2024-01-06T15:43:59;5.73;;;4.70;;
9536;SDS011;4807;48.024;11.726;2024-01-06T15:47:08;7.17;;;5.87;;
9536;SDS011;4807;48.024;11.726;2024-01-06T15:50:16;8.37;;;6.50;;
9536;SDS011;4807;48.024;11.726;2024-01-06T15:53:24;6.60;;;5.27;;
9536;SDS011;4807;48.024;11.726;2024-01-06T15:56:34;5.17;;;4.67;;
9536;SDS011;4807;48.024;11.726;2024-01-06T15:59:45;4.57;;;3.60;;
9536;SDS011;4807;48.024;11.726;2024-01-06T16:02:54;10.07;;;5.57;;
9536;SDS011;4807;48.024;11.726;2024-01-06T16:06:06;6.27;;;5.13;;
9536;SDS011;4807;48.024;11.726;2024-01-06T16:09:15;7.23;;;5.73;;
9536;SDS011;4807;48.024;11.726;2024-01-06T16:12:24;32.93;;;20.03;;
9536;SDS011;4807;48.024;11.726;2024-01-06T16:15:35;22.30;;;14.73;;
9536;SDS011;4807;48.024;11.726;2024-01-06T16:18:43;10.80;;;7.37;;
9536;SDS011;4807;48.024;11.726;2024-01-06T16:21:52;8.07;;;6.63;;
9536;SDS011;4807;48.024;11.726;2024-01-06T16:25:12;7.50;;;5.57;;
9536;SDS011;4807;48.024;11.726;2024-01-06T16:28:22;25.93;;;11.43;;
9536;SDS011;4807;48.024;11.726;2024-01-06T16:31:31;19.47;;;10.53;;
9536;SDS011;4807;48.024;11.726;2024-01-06T16:34:43;18.47;;;10.50;;
9536;SDS011;4807;48.024;11.726;2024-01-06T16:37:59;14.87;;;10.13;;
9536;SDS011;4807;48.024;11.726;2024-01-06T16:41:10;12.87;;;9.77;;
9536;SDS011;4807;48.024;11.726;2024-01-06T16:44:46;12.53;;;8.97;;
9536;SDS011;4807;48.024;11.726;2024-01-06T16:47:55;17.30;;;10.53;;
9536;SDS011;4807;48.024;11.726;2024-01-06T16:51:03;18.73;;;10.50;;
9536;SDS011;4807;48.024;11.726;2024-01-06T16:54:12;15.80;;;10.60;;
9536;SDS011;4807;48.024;11.726;2024-01-06T16:57:20;11.97;;;7.90;;
9536;SDS011;4807;48.024;11.726;2024-01-06T17:00:30;14.00;;;8.10;;
9536;SDS011;4807;48.024;11.726;2024-01-06T17:03:41;19.97;;;11.50;;
9536;SDS011;4807;48.024;11.726;2024-01-06T17:06:54;17.07;;;9.83;;
9536;SDS011;4807;48.024;11.726;2024-01-06T17:10:08;16.00;;;8.47;;
9536;SDS011;4807;48.024;11.726;2024-01-06T17:13:35;13.67;;;8.53;;
9536;SDS011;4807;48.024;11.726;2024-01-06T17:16:46;16.37;;;9.73;;
9536;SDS011;4807;48.024;11.726;2024-01-06T17:19:55;18.17;;;11.77;;
9536;SDS011;4807;48.024;11.726;2024-01-06T17:23:03;7.60;;;6.27;;
9536;SDS011;4807;48.024;11.726;2024-01-06T17:26:12;9.00;;;7.80;;
9536;SDS011;4807;48.024;11.726;2024-01-06T17:29:23;10.13;;;8.50;;
9536;SDS011;4807;48.024;11.726;2024-01-06T17:32:53;16.60;;;11.20;;
9536;SDS011;4807;48.024;11.726;2024-01-06T17:36:01;13.40;;;8.83;;
9536;SDS011;4807;48.024;11.726;2024-01-06T17:39:10;10.47;;;7.70;;
9536;SDS011;4807;48.024;11.726;2024-01-06T17:42:18;9.00;;;6.47;;
9536;SDS011;4807;48.024;11.726;2024-01-06T17:45:28;7.97;;;6.13;;
9536;SDS011;4807;48.024;11.726;2024-01-06T17:48:38;9.27;;;6.33;;
9536;SDS011;4807;48.024;11.726;2024-01-06T17:51:47;8.53;;;5.53;;
9536;SDS011;4807;48.024;11.726;2024-01-06T17:54:55;7.30;;;5.23;;
9536;SDS011;4807;48.024;11.726;2024-01-06T17:58:03;8.07;;;5.80;;
9536;SDS011;4807;48.024;11.726;2024-01-06T18:01:14;6.23;;;4.17;;
9536;SDS011;4807;48.024;11.726;2024-01-06T18:04:24;6.67;;;4.87;;
9536;SDS011;4807;48.024;11.726;2024-01-06T18:07:32;7.27;;;5.20;;
9536;SDS011;4807;48.024;11.726;2024-01-06T18:10:41;6.30;;;4.40;;
9536;SDS011;4807;48.024;11.726;2024-01-06T18:13:49;54.47;;;36.23;;
9536;SDS011;4807;48.024;11.726;2024-01-06T18:16:57;8.30;;;6.30;;
9536;SDS011;4807;48.024;11.726;2024-01-06T18:20:11;8.13;;;6.07;;
9536;SDS011;4807;48.024;11.726;2024-01-06T18:23:28;7.90;;;5.30;;
9536;SDS011;4807;48.024;11.726;2024-01-06T18:26:37;7.37;;;5.80;;
9536;SDS011;4807;48.024;11.726;2024-01-06T18:29:45;5.50;;;4.97;;
9536;SDS011;4807;48.024;11.726;2024-01-06T18:32:55;5.43;;;4.67;;
9536;SDS011;4807;48.024;11.726;2024-01-06T18:36:08;6.27;;;4.33;;
9536;SDS011;4807;48.024;11.726;2024-01-06T18:39:19;4.87;;;4.30;;
9536;SDS011;4807;48.024;11.726;2024-01-06T18:42:30;4.53;;;4.13;;
9536;SDS011;4807;48.024;11.726;2024-01-06T18:45:42;4.20;;;3.20;;
9536;SDS011;4807;48.024;11.726;2024-01-06T18:48:50;4.07;;;3.63;;
9536;SDS011;4807;48.024;11.726;2024-01-06T18:52:02;6.97;;;5.37;;
9536;SDS011;4807;48.024;11.726;2024-01-06T18:55:11;3.87;;;3.47;;
9536;SDS011;4807;48.024;11.726;2024-01-06T18:58:21;3.33;;;3.03;;
9536;SDS011;4807;48.024;11.726;2024-01-06T19:01:29;3.40;;;2.53;;
9536;SDS011;4807;48.024;11.726;2024-01-06T19:04:38;3.60;;;3.30;;
9536;SDS011;4807;48.024;11.726;2024-01-06T19:07:48;4.43;;;3.30;;
9536;SDS011;4807;48.024;11.726;2024-01-06T19:10:56;4.70;;;4.30;;
9536;SDS011;4807;48.024;11.726;2024-01-06T19:14:05;5.43;;;4.37;;
9536;SDS011;4807;48.024;11.726;2024-01-06T19:17:13;5.00;;;3.40;;
9536;SDS011;4807;48.024;11.726;2024-01-06T19:20:21;4.43;;;3.40;;
9536;SDS011;4807;48.024;11.726;2024-01-06T19:23:32;3.90;;;2.87;;
9536;SDS011;4807;48.024;11.726;2024-01-06T19:26:42;6.03;;;3.70;;
9536;SDS011;4807;48.024;11.726;2024-01-06T19:29:50;4.57;;;3.77;;
9536;SDS011;4807;48.024;11.726;2024-01-06T19:32:59;4.77;;;4.17;;
9536;SDS011;4807;48.024;11.726;2024-01-06T19:36:09;5.33;;;3.97;;
9536;SDS011;4807;48.024;11.726;2024-01-06T19:39:19;5.87;;;4.80;;
9536;SDS011;4807;48.024;11.726;2024-01-06T19:42:30;7.37;;;5.10;;